createdAt,value
2023-01-11T00:01:10.551Z,100986.47
2023-01-11T00:04:13.854Z,100986.47
2023-01-11T00:07:16.822Z,100985.56
2023-01-11T00:10:24.110Z,100985.41
2023-01-11T00:13:27.132Z,100982.00
2023-01-11T00:16:30.261Z,100982.00
2023-01-11T00:19:33.347Z,100973.41
2023-01-11T00:22:36.402Z,100974.28
2023-01-11T00:25:40.736Z,100971.66
2023-01-11T00:28:43.761Z,100970.75
2023-01-11T00:31:46.735Z,100963.00
2023-01-11T00:34:49.763Z,100976.66
2023-01-11T00:37:54.231Z,100963.00
2023-01-11T00:41:18.533Z,100962.88
2023-01-11T00:44:39.172Z,100960.38
2023-01-11T00:48:01.158Z,100950.13
2023-01-11T00:51:04.388Z,100944.06
2023-01-11T00:54:07.679Z,100935.41
2023-01-11T00:57:12.095Z,100938.00
2023-01-11T01:00:16.082Z,100935.41
2023-01-11T01:03:19.148Z,100937.09
2023-01-11T01:06:22.236Z,100931.69
2023-01-11T01:09:26.899Z,100924.84
2023-01-11T01:12:49.278Z,100916.22
2023-01-11T01:15:58.662Z,100918.88
2023-01-11T01:19:01.776Z,100909.53
2023-01-11T01:22:06.003Z,100918.94
2023-01-11T01:25:10.020Z,100912.03
2023-01-11T01:28:14.362Z,100917.91
2023-01-11T01:31:18.003Z,100911.78
2023-01-11T01:34:21.053Z,100902.19
2023-01-11T01:37:24.069Z,100899.63
2023-01-11T01:40:27.120Z,100909.03
2023-01-11T01:43:49.510Z,100894.25
2023-01-11T01:46:52.735Z,100899.47
2023-01-11T01:49:58.065Z,100892.63
2023-01-11T01:53:06.839Z,100891.63
2023-01-11T01:56:14.377Z,100888.97
2023-01-11T01:59:21.424Z,100879.38
2023-01-11T02:02:26.851Z,100874.22
2023-01-11T02:05:30.043Z,100870.59
2023-01-11T02:08:39.134Z,100879.94
2023-01-11T02:11:43.444Z,100861.69
2023-01-11T02:14:49.096Z,100854.72
2023-01-11T02:17:54.792Z,100832.22
2023-01-11T02:21:20.913Z,100834.72
2023-01-11T02:24:54.976Z,100832.06
2023-01-11T02:28:10.947Z,100823.38
2023-01-11T02:31:29.187Z,100824.63
2023-01-11T02:34:41.896Z,100819.47
2023-01-11T02:38:01.610Z,100810.81
2023-01-11T02:41:11.502Z,100812.38
2023-01-11T02:44:39.601Z,100800.00
2023-01-11T02:47:54.435Z,100794.94
2023-01-11T02:51:03.779Z,100792.28
2023-01-11T02:54:10.811Z,100796.31
2023-01-11T02:57:16.585Z,100798.13
2023-01-11T03:00:22.475Z,100787.94
2023-01-11T03:03:28.636Z,100792.13
2023-01-11T03:06:35.657Z,100786.13
2023-01-11T03:09:52.650Z,100785.91
2023-01-11T03:13:09.949Z,100784.31
2023-01-11T03:16:25.670Z,100774.13
2023-01-11T03:19:39.003Z,100768.75
2023-01-11T03:22:57.042Z,100766.94
2023-01-11T03:26:04.908Z,100752.16
2023-01-11T03:29:17.965Z,100757.22
2023-01-11T03:32:29.590Z,100742.66
2023-01-11T03:35:40.744Z,100756.25
2023-01-11T03:38:49.657Z,100757.03
2023-01-11T03:41:57.386Z,100747.47
2023-01-11T03:45:02.536Z,100743.81
2023-01-11T03:48:12.989Z,100731.81
2023-01-11T03:51:22.672Z,100727.38
2023-01-11T03:54:29.187Z,100727.41
2023-01-11T03:57:36.988Z,100722.19
2023-01-11T04:00:42.888Z,100730.84
2023-01-11T04:03:47.302Z,100714.38
2023-01-11T04:06:50.424Z,100714.22
2023-01-11T04:09:53.580Z,100711.56
2023-01-11T04:12:57.134Z,100721.06
2023-01-11T04:16:00.275Z,100711.41
2023-01-11T04:19:04.785Z,100717.41
2023-01-11T04:22:07.876Z,100701.84
2023-01-11T04:25:11.478Z,100706.94
2023-01-11T04:28:14.495Z,100703.38
2023-01-11T04:31:20.296Z,100697.22
2023-01-11T04:34:24.732Z,100698.06
2023-01-11T04:37:27.935Z,100694.56
2023-01-11T04:40:31.072Z,100689.38
2023-01-11T04:43:33.152Z,100685.00
2023-01-11T04:46:36.390Z,100680.72
2023-01-11T04:49:40.769Z,100661.81
2023-01-11T04:52:43.729Z,100660.16
2023-01-11T04:55:47.494Z,100658.47
2023-01-11T04:58:50.619Z,100651.47
2023-01-11T05:01:53.687Z,100665.19
2023-01-11T05:04:58.040Z,100664.41
2023-01-11T05:08:01.109Z,100657.47
2023-01-11T05:11:09.204Z,100666.66
2023-01-11T05:14:12.840Z,100642.69
2023-01-11T05:17:17.176Z,100649.44
2023-01-11T05:20:21.559Z,100639.78
2023-01-11T05:23:24.739Z,100632.03
2023-01-11T05:26:32.690Z,100637.97
2023-01-11T05:29:37.671Z,100622.53
2023-01-11T05:32:40.786Z,100625.06
2023-01-11T05:35:45.446Z,100620.63
2023-01-11T05:38:50.544Z,100616.38
2023-01-11T05:41:53.687Z,100620.63
2023-01-11T05:45:14.652Z,100608.56
2023-01-11T05:48:20.570Z,100619.50
2023-01-11T05:51:25.027Z,100605.88
2023-01-11T05:54:29.005Z,100600.72
2023-01-11T05:57:36.879Z,100598.91
2023-01-11T06:00:43.353Z,100601.50
2023-01-11T06:03:48.808Z,100602.25
2023-01-11T06:06:58.068Z,100598.72
2023-01-11T06:10:01.418Z,100591.75
2023-01-11T06:13:29.333Z,100586.75
2023-01-11T06:20:01.065Z,100573.91
2023-01-11T06:23:08.779Z,100564.56
2023-01-11T06:26:16.622Z,100567.13
2023-01-11T06:29:35.128Z,100570.41
2023-01-11T06:32:43.561Z,100569.41
2023-01-11T06:35:57.157Z,100568.50
2023-01-11T06:39:13.381Z,100561.50
2023-01-11T06:42:20.457Z,100560.44
2023-01-11T06:45:23.688Z,100564.59
2023-01-11T06:48:27.402Z,100556.00
2023-01-11T06:51:30.378Z,100561.09
2023-01-11T06:54:34.760Z,100569.75
2023-01-11T06:57:37.809Z,100565.28
2023-01-11T07:00:57.713Z,100568.78
2023-01-11T07:04:03.070Z,100574.00
2023-01-11T07:07:06.081Z,100579.13
2023-01-11T07:10:14.299Z,100578.19
2023-01-11T07:13:17.891Z,100586.88
2023-01-11T07:16:22.181Z,100591.13
2023-01-11T07:19:25.392Z,100593.63
2023-01-11T07:22:28.769Z,100590.19
2023-01-11T07:25:39.879Z,100597.81
2023-01-11T07:28:42.953Z,100599.50
2023-01-11T07:31:48.137Z,100603.75
2023-01-11T07:34:53.736Z,100597.88
2023-01-11T07:37:56.876Z,100597.81
2023-01-11T07:41:21.557Z,100589.31
2023-01-11T07:44:28.001Z,100587.56
2023-01-11T07:47:31.569Z,100584.13
2023-01-11T07:50:35.107Z,100590.97
2023-01-11T07:53:38.160Z,100584.72
2023-01-11T07:56:42.554Z,100583.06
2023-01-11T07:59:45.655Z,100585.31
2023-01-11T08:02:53.855Z,100586.06
2023-01-11T08:06:00.012Z,100587.66
2023-01-11T08:09:03.913Z,100574.66
2023-01-11T08:12:26.583Z,100571.91
2023-01-11T08:15:29.755Z,100561.41
2023-01-11T08:18:32.882Z,100566.50
2023-01-11T08:21:36.023Z,100562.91
2023-01-11T08:24:39.451Z,100561.16
2023-01-11T08:27:43.897Z,100558.47
2023-01-11T08:30:46.969Z,100554.81
2023-01-11T08:33:50.402Z,100563.16
2023-01-11T08:36:53.866Z,100555.25
2023-01-11T08:39:58.272Z,100545.66
2023-01-11T08:43:03.407Z,100541.97
2023-01-11T08:46:07.131Z,100541.63
2023-01-11T08:49:12.114Z,100542.13
2023-01-11T08:52:15.489Z,100542.59
2023-01-11T08:55:19.300Z,100545.78
2023-01-11T08:58:23.796Z,100536.94
2023-01-11T09:01:27.011Z,100540.09
2023-01-11T09:04:30.188Z,100535.50
2023-01-11T09:07:33.645Z,100535.41
2023-01-11T09:10:39.418Z,100526.34
2023-01-11T09:13:43.881Z,100543.38
2023-01-11T09:16:47.048Z,100529.44
2023-01-11T09:19:51.168Z,100522.25
2023-01-11T09:22:54.444Z,100517.81
2023-01-11T09:25:57.868Z,100515.78
2023-01-11T09:29:02.775Z,100517.28
2023-01-11T09:32:07.089Z,100518.75
2023-01-11T09:35:16.999Z,100515.06
2023-01-11T09:38:20.432Z,100511.38
2023-01-11T09:41:42.756Z,100509.50
2023-01-11T09:44:52.971Z,100509.34
2023-01-11T09:48:06.886Z,100497.31
2023-01-11T09:51:12.541Z,100503.91
2023-01-11T09:54:19.985Z,100490.09
2023-01-11T09:57:38.227Z,100503.69
2023-01-11T10:00:54.140Z,100496.19
2023-01-11T10:04:32.822Z,100479.19
2023-01-11T10:18:22.928Z,100450.31
2023-01-11T10:19:32.171Z,100431.38
2023-01-11T10:22:33.462Z,100418.69
2023-01-11T10:25:44.529Z,100411.19
2023-01-11T10:29:09.836Z,100389.94
2023-01-11T10:32:34.734Z,100389.28
2023-01-11T10:36:05.832Z,100374.69
2023-01-11T10:39:31.940Z,100365.25
2023-01-11T10:42:47.617Z,100373.78
2023-01-11T10:45:59.332Z,100364.34
2023-01-11T10:49:35.919Z,100357.47
2023-01-11T10:53:03.486Z,100350.47
2023-01-11T10:56:21.812Z,100334.72
2023-01-11T10:59:52.484Z,100336.50
2023-01-11T11:03:36.083Z,100321.78
2023-01-11T11:06:47.571Z,100320.84
2023-01-11T11:10:03.127Z,100311.97
2023-01-11T11:13:14.682Z,100303.38
2023-01-11T11:16:36.163Z,100295.06
2023-01-11T11:19:41.169Z,100283.50
2023-01-11T11:22:52.816Z,100283.50
2023-01-11T11:25:59.998Z,100276.56
2023-01-11T11:29:06.455Z,100276.56
2023-01-11T11:32:19.859Z,100268.19
2023-01-11T11:35:36.727Z,100266.88
2023-01-11T11:38:42.234Z,100266.03
2023-01-11T11:41:52.781Z,100254.19
2023-01-11T11:45:17.471Z,100254.84
2023-01-11T11:48:25.640Z,100256.50
2023-01-11T11:51:28.788Z,100250.28
2023-01-11T11:54:35.316Z,100241.63
2023-01-11T11:57:44.059Z,100240.59
2023-01-11T12:00:49.677Z,100238.94
2023-01-11T12:03:55.907Z,100231.59
2023-01-11T12:07:10.477Z,100226.31
2023-01-11T12:10:17.250Z,100228.00
2023-01-11T12:13:33.923Z,100210.38
2023-01-11T12:16:40.774Z,100206.88
2023-01-11T12:19:47.866Z,100202.31
2023-01-11T12:22:52.011Z,100202.25
2023-01-11T12:26:22.548Z,100190.94
2023-01-11T12:29:51.999Z,100190.53
2023-01-11T12:33:57.424Z,100182.75
2023-01-11T12:38:12.683Z,100183.47
2023-01-11T12:41:44.957Z,100184.31
2023-01-11T12:45:08.663Z,100178.13
2023-01-11T12:48:38.982Z,100174.59
2023-01-11T12:56:31.553Z,100173.34
2023-01-11T13:00:15.004Z,100172.31
2023-01-11T13:03:42.003Z,100160.09
2023-01-11T13:06:53.978Z,100141.03
2023-01-11T13:10:26.965Z,100148.59
2023-01-11T13:13:44.545Z,100152.09
2023-01-11T13:16:58.296Z,100153.78
2023-01-11T13:20:28.081Z,100147.66
2023-01-11T13:23:42.045Z,100142.19
2023-01-11T13:26:51.062Z,100149.97
2023-01-11T13:29:57.057Z,100147.38
2023-01-11T13:33:11.648Z,100155.16
2023-01-11T13:36:23.693Z,100152.31
2023-01-11T13:39:33.741Z,100155.97
2023-01-11T13:42:41.396Z,100152.97
2023-01-11T13:45:50.078Z,100160.75
2023-01-11T13:49:01.696Z,100154.63
2023-01-11T13:52:12.161Z,100154.72
2023-01-11T13:55:26.084Z,100150.91
2023-01-11T13:58:37.088Z,100153.47
2023-01-11T14:01:49.894Z,100158.44
2023-01-11T14:05:02.265Z,100150.59
2023-01-11T14:08:23.679Z,100163.44
2023-01-11T14:11:38.751Z,100162.50
2023-01-11T14:15:08.719Z,100166.56
2023-01-11T14:18:26.078Z,100168.19
2023-01-11T14:21:43.236Z,100171.50
2023-01-11T14:24:55.103Z,100166.31
2023-01-11T14:28:13.879Z,100171.31
2023-01-11T14:31:39.481Z,100169.84
2023-01-11T14:35:20.192Z,100170.25
2023-01-11T14:39:01.357Z,100173.59
2023-01-11T14:42:31.928Z,100170.19
2023-01-11T14:45:55.374Z,100176.09
2023-01-11T14:49:13.582Z,100170.91
2023-01-11T14:52:34.560Z,100180.22
2023-01-11T14:55:46.438Z,100171.41
2023-01-11T14:59:06.682Z,100180.84
2023-01-11T15:02:29.598Z,100176.50
2023-01-11T15:05:43.982Z,100182.50
2023-01-11T15:08:55.169Z,100181.78
2023-01-11T15:12:17.519Z,100177.31
2023-01-11T15:15:45.249Z,100176.28
2023-01-11T15:18:47.552Z,100173.59
2023-01-11T15:21:53.265Z,100180.66
2023-01-11T15:25:00.262Z,100182.31
2023-01-11T15:28:35.010Z,100200.22
2023-01-11T15:31:47.116Z,100187.25
2023-01-11T15:34:51.613Z,100197.44
2023-01-11T15:38:03.590Z,100197.03
2023-01-11T15:41:35.395Z,100195.38
2023-01-11T15:45:14.531Z,100197.03
2023-01-11T15:48:32.600Z,100210.69
2023-01-11T15:52:14.712Z,100199.31
2023-01-11T15:56:09.861Z,100202.84
2023-01-11T15:59:53.728Z,100222.38
2023-01-11T16:03:52.443Z,100217.19
2023-01-11T16:07:04.860Z,100231.06
2023-01-11T16:10:36.886Z,100231.69
2023-01-11T16:13:58.213Z,100235.84
2023-01-11T16:17:04.215Z,100242.72
2023-01-11T16:20:27.371Z,100244.34
2023-01-11T16:23:33.032Z,100253.72
2023-01-11T16:26:37.586Z,100262.41
2023-01-11T16:29:40.816Z,100268.94
2023-01-11T16:32:45.161Z,100263.56
2023-01-11T16:35:48.299Z,100260.97
2023-01-11T16:39:02.099Z,100262.63
2023-01-11T16:42:11.879Z,100275.47
2023-01-11T16:45:22.332Z,100278.00
2023-01-11T16:48:30.471Z,100282.00
2023-01-11T16:51:38.388Z,100292.31
2023-01-11T16:54:43.919Z,100293.84
2023-01-11T16:57:51.379Z,100299.16
2023-01-11T17:01:00.521Z,100300.81
2023-01-11T17:04:10.108Z,100306.81
2023-01-11T17:07:22.579Z,100309.53
2023-01-11T17:10:31.011Z,100298.31
2023-01-11T17:14:20.542Z,100303.41
2023-01-11T17:17:25.411Z,100308.72
2023-01-11T17:20:33.405Z,100316.59
2023-01-11T17:23:53.506Z,100324.06
2023-01-11T17:28:03.723Z,100309.22
2023-01-11T17:31:11.365Z,100313.69
2023-01-11T17:34:20.444Z,100314.41
2023-01-11T17:37:27.004Z,100322.22
2023-01-11T17:40:35.490Z,100312.44
2023-01-11T17:43:57.741Z,100319.38
2023-01-11T17:47:04.740Z,100331.44
2023-01-11T17:50:21.383Z,100334.03
2023-01-11T17:53:27.477Z,100321.78
2023-01-11T17:56:43.548Z,100342.75
2023-01-11T17:59:48.007Z,100347.13
2023-01-11T18:02:52.398Z,100350.53
2023-01-11T18:05:55.583Z,100366.13
2023-01-11T18:09:00.854Z,100366.41
2023-01-11T18:12:11.014Z,100371.00
2023-01-11T18:15:31.937Z,100372.25
2023-01-11T18:18:45.242Z,100377.22
2023-01-11T18:22:40.724Z,100382.22
2023-01-11T18:25:46.103Z,100381.28
2023-01-11T18:28:51.882Z,100379.50
2023-01-11T18:31:56.831Z,100386.34
2023-01-11T18:35:13.566Z,100387.50
2023-01-11T18:38:19.078Z,100397.78
2023-01-11T18:41:40.818Z,100394.88
2023-01-11T18:44:49.394Z,100398.63
2023-01-11T18:47:57.430Z,100400.81
2023-01-11T18:51:01.504Z,100412.84
2023-01-11T18:54:05.553Z,100409.81
2023-01-11T18:57:09.134Z,100412.72
2023-01-11T19:00:18.584Z,100403.16
2023-01-11T19:03:25.290Z,100399.03
2023-01-11T19:06:28.851Z,100419.78
2023-01-11T19:09:37.677Z,100418.31
2023-01-11T19:12:44.522Z,100428.19
2023-01-11T19:15:50.304Z,100434.94
2023-01-11T19:18:56.623Z,100437.00
2023-01-11T19:22:03.021Z,100434.72
2023-01-11T19:25:09.405Z,100438.25
2023-01-11T19:28:15.187Z,100454.09
2023-01-11T19:31:25.946Z,100452.50
2023-01-11T19:34:30.480Z,100460.38
2023-01-11T19:37:34.625Z,100464.63
2023-01-11T19:40:50.389Z,100460.78
2023-01-11T19:43:54.249Z,100467.63
2023-01-11T19:47:10.450Z,100458.28
2023-01-11T19:50:18.740Z,100471.72
2023-01-11T19:53:27.764Z,100474.44
2023-01-11T19:56:51.880Z,100478.41
2023-01-11T19:59:57.135Z,100479.78
2023-01-11T20:03:07.027Z,100487.06
2023-01-11T20:06:22.095Z,100492.44
2023-01-11T20:09:25.991Z,100485.59
2023-01-11T20:12:31.704Z,100502.47
2023-01-11T20:15:34.882Z,100504.84
2023-01-11T20:18:42.390Z,100508.56
2023-01-11T20:21:49.072Z,100513.56
2023-01-11T20:24:52.253Z,100524.31
2023-01-11T20:28:00.374Z,100513.94
2023-01-11T20:31:09.976Z,100514.88
2023-01-11T20:34:13.773Z,100511.09
2023-01-11T20:37:18.703Z,100509.53
2023-01-11T20:40:21.916Z,100516.00
2023-01-11T20:43:35.249Z,100520.06
2023-01-11T20:46:38.981Z,100522.84
2023-01-11T20:49:43.724Z,100524.31
2023-01-11T20:52:49.510Z,100530.59
2023-01-11T20:55:52.573Z,100527.41
2023-01-11T20:58:55.591Z,100534.13
2023-01-11T21:01:58.898Z,100537.84
2023-01-11T21:05:04.446Z,100543.00
2023-01-11T21:08:08.930Z,100538.41
2023-01-11T21:11:17.285Z,100535.81
2023-01-11T21:14:21.289Z,100539.91
2023-01-11T21:17:24.357Z,100540.25
2023-01-11T21:20:27.769Z,100535.25
2023-01-11T21:23:35.643Z,100533.59
2023-01-11T21:26:38.872Z,100537.13
2023-01-11T21:29:42.031Z,100544.50
2023-01-11T21:32:47.680Z,100538.38
2023-01-11T21:35:54.166Z,100550.88
2023-01-11T21:39:00.327Z,100552.81
2023-01-11T21:42:09.300Z,100550.59
2023-01-11T21:45:12.808Z,100561.03
2023-01-11T21:48:17.896Z,100559.53
2023-01-11T21:51:22.244Z,100562.22
2023-01-11T21:54:26.788Z,100551.97
2023-01-11T21:57:29.931Z,100572.59
2023-01-11T22:00:35.727Z,100580.06
2023-01-11T22:03:42.045Z,100581.81
2023-01-11T22:06:50.987Z,100588.28
2023-01-11T22:10:04.629Z,100585.50
2023-01-11T22:13:12.765Z,100591.94
2023-01-11T22:16:18.213Z,100586.97
2023-01-11T22:19:24.857Z,100590.44
2023-01-11T22:22:28.212Z,100591.56
2023-01-11T22:25:32.638Z,100585.53
2023-01-11T22:28:56.068Z,100591.00
2023-01-11T22:32:01.305Z,100591.00
2023-01-11T22:35:04.797Z,100586.91
2023-01-11T22:38:15.523Z,100594.19
2023-01-11T22:41:25.980Z,100595.25
2023-01-11T22:44:29.097Z,100605.84
2023-01-11T22:47:35.136Z,100604.63
2023-01-11T22:50:40.752Z,100602.53
2023-01-11T22:53:46.300Z,100610.88
2023-01-11T22:56:52.668Z,100621.56
2023-01-11T22:59:57.616Z,100619.47
2023-01-11T23:03:08.222Z,100605.72
2023-01-11T23:06:16.951Z,100615.78
2023-01-11T23:09:21.943Z,100620.22
2023-01-11T23:12:44.665Z,100628.03
2023-01-11T23:15:53.436Z,100616.13
2023-01-11T23:18:56.697Z,100610.03
2023-01-11T23:22:02.607Z,100613.28
2023-01-11T23:25:07.286Z,100616.78
2023-01-11T23:28:13.410Z,100614.03
2023-01-11T23:31:19.097Z,100610.47
2023-01-11T23:34:22.161Z,100607.34
2023-01-11T23:37:25.478Z,100603.00
2023-01-11T23:40:55.837Z,100604.84
2023-01-11T23:43:59.780Z,100601.66
2023-01-11T23:47:24.780Z,100602.50
2023-01-11T23:50:27.868Z,100591.81
2023-01-11T23:53:30.945Z,100585.09
2023-01-11T23:56:35.294Z,100580.16
2023-01-11T23:59:43.636Z,100568.31
